createdAt,value
2022-10-03T00:03:33.830Z,100037.03
2022-10-03T00:08:47.738Z,100031.94
2022-10-03T00:14:19.044Z,100037.03
2022-10-03T00:19:48.491Z,100030.28
2022-10-03T00:24:59.041Z,100029.44
2022-10-03T00:30:13.400Z,100035.31
2022-10-03T00:35:44.760Z,100036.16
2022-10-03T00:40:55.775Z,100033.63
2022-10-03T00:46:06.714Z,100023.53
2022-10-03T00:51:25.850Z,100023.53
2022-10-03T00:56:45.922Z,100020.16
2022-10-03T01:01:50.031Z,100026.88
2022-10-03T01:07:13.549Z,100025.22
2022-10-03T01:12:33.706Z,100026.91
2022-10-03T01:17:48.009Z,100025.22
2022-10-03T01:23:07.714Z,100028.59
2022-10-03T01:28:37.080Z,100020.13
2022-10-03T01:34:00.871Z,100026.84
2022-10-03T01:39:26.537Z,100030.25
2022-10-03T01:44:30.873Z,100037.81
2022-10-03T01:50:13.052Z,100037.81
2022-10-03T01:55:28.250Z,100038.66
2022-10-03T02:00:56.656Z,100031.91
2022-10-03T02:06:14.925Z,100034.44
2022-10-03T02:11:40.496Z,100036.09
2022-10-03T02:16:58.255Z,100053.81
2022-10-03T02:22:00.605Z,100060.53
2022-10-03T02:27:11.823Z,100062.19
2022-10-03T02:32:46.715Z,100069.78
2022-10-03T02:38:11.672Z,100070.59
2022-10-03T02:43:25.573Z,100075.66
2022-10-03T02:48:52.094Z,100078.16
2022-10-03T02:54:05.611Z,100076.50
2022-10-03T02:59:15.474Z,100073.97
2022-10-03T03:04:52.201Z,100081.53
2022-10-03T03:10:09.160Z,100086.56
2022-10-03T03:15:28.929Z,100091.63
2022-10-03T03:20:39.048Z,100089.97
2022-10-03T03:25:52.519Z,100101.72
2022-10-03T03:31:03.775Z,100105.94
2022-10-03T03:36:24.397Z,100103.41
2022-10-03T03:41:51.028Z,100117.72
2022-10-03T03:47:19.646Z,100122.78
2022-10-03T03:52:46.391Z,100114.38
2022-10-03T03:58:07.182Z,100118.59
2022-10-03T04:03:30.822Z,100130.41
2022-10-03T04:08:41.525Z,100136.31
2022-10-03T04:14:21.855Z,100137.13
2022-10-03T04:19:38.665Z,100148.09
2022-10-03T04:24:58.563Z,100144.72
2022-10-03T04:30:11.598Z,100137.09
2022-10-03T04:35:28.463Z,100141.31
2022-10-03T04:40:47.967Z,100147.97
2022-10-03T04:45:55.810Z,100149.63
2022-10-03T04:51:12.777Z,100139.53
2022-10-03T04:56:23.711Z,100145.41
2022-10-03T05:01:50.681Z,100141.19
2022-10-03T05:07:13.989Z,100154.63
2022-10-03T05:12:20.944Z,100145.34
2022-10-03T05:17:42.478Z,100153.81
2022-10-03T05:22:49.816Z,100162.28
2022-10-03T05:28:01.331Z,100164.78
2022-10-03T05:33:10.345Z,100163.13
2022-10-03T05:38:34.865Z,100171.63
2022-10-03T05:43:58.635Z,100173.38
2022-10-03T05:49:19.300Z,100171.69
2022-10-03T05:54:33.159Z,100175.94
2022-10-03T05:59:49.319Z,100179.31
2022-10-03T06:05:02.983Z,100212.19
2022-10-03T06:10:14.384Z,100207.97
2022-10-03T06:15:54.672Z,100205.44
2022-10-03T06:21:14.686Z,100188.59
2022-10-03T06:26:40.098Z,100197.03
2022-10-03T06:32:06.920Z,100209.66
2022-10-03T06:37:46.262Z,100198.78
2022-10-03T06:43:16.296Z,100198.00
2022-10-03T06:48:29.840Z,100209.00
2022-10-03T06:53:34.385Z,100205.66
2022-10-03T06:58:57.719Z,100196.34
2022-10-03T07:04:24.144Z,100208.16
2022-10-03T07:09:29.529Z,100215.78
2022-10-03T07:14:41.802Z,100216.63
2022-10-03T07:20:04.856Z,100214.13
2022-10-03T07:25:21.945Z,100220.91
2022-10-03T07:30:25.778Z,100225.09
2022-10-03T07:35:58.506Z,100232.69
2022-10-03T07:41:02.850Z,100236.06
2022-10-03T07:46:36.468Z,100233.53
2022-10-03T07:52:16.343Z,100242.03
2022-10-03T07:57:38.117Z,100244.59
2022-10-03T08:02:58.008Z,100263.19
2022-10-03T08:08:25.510Z,100253.06
2022-10-03T08:13:55.120Z,100264.84
2022-10-03T08:19:18.664Z,100260.63
2022-10-03T08:24:45.466Z,100259.78
2022-10-03T08:30:17.764Z,100267.38
2022-10-03T08:35:50.278Z,100269.06
2022-10-03T08:41:10.126Z,100283.41
2022-10-03T08:46:39.778Z,100259.78
2022-10-03T08:52:21.388Z,100261.41
2022-10-03T08:57:45.364Z,100263.06
2022-10-03T09:03:43.037Z,100266.44
2022-10-03T09:08:57.278Z,100273.13
2022-10-03T09:14:11.002Z,100276.53
2022-10-03T09:19:38.653Z,100279.09
2022-10-03T09:25:02.541Z,100276.53
2022-10-03T09:30:04.358Z,100276.53
2022-10-03T09:35:33.499Z,100283.28
2022-10-03T09:41:12.845Z,100295.94
2022-10-03T09:47:18.427Z,100284.97
2022-10-03T09:52:33.220Z,100281.56
2022-10-03T09:57:46.801Z,100292.50
2022-10-03T10:03:06.655Z,100283.28
2022-10-03T10:08:26.505Z,100284.97
2022-10-03T10:13:49.738Z,100264.56
2022-10-03T10:19:14.154Z,100273.81
2022-10-03T10:24:36.676Z,100254.22
2022-10-03T10:29:53.446Z,100259.25
2022-10-03T10:35:23.277Z,100248.94
2022-10-03T10:40:43.948Z,100238.66
2022-10-03T10:46:00.816Z,100247.09
2022-10-03T10:51:42.622Z,100257.25
2022-10-03T10:57:07.954Z,100248.16
2022-10-03T11:02:18.491Z,100260.91
2022-10-03T11:07:45.789Z,100244.91
2022-10-03T11:12:53.174Z,100254.25
2022-10-03T11:18:22.614Z,100252.38
2022-10-03T11:23:39.927Z,100263.16
2022-10-03T11:29:06.593Z,100257.06
2022-10-03T11:34:29.925Z,100258.78
2022-10-03T11:39:41.997Z,100251.97
2022-10-03T11:45:01.145Z,100255.28
2022-10-03T11:50:20.995Z,100248.47
2022-10-03T11:55:48.331Z,100247.59
2022-10-03T12:01:02.003Z,100251.13
2022-10-03T12:06:33.052Z,100268.88
2022-10-03T12:11:44.326Z,100268.88
2022-10-03T12:16:58.461Z,100275.69
2022-10-03T12:22:21.342Z,100270.69
2022-10-03T12:27:41.680Z,100271.50
2022-10-03T12:32:52.234Z,100259.66
2022-10-03T12:38:34.638Z,100249.50
2022-10-03T12:44:08.566Z,100248.53
2022-10-03T12:49:26.350Z,100251.75
2022-10-03T12:54:34.511Z,100245.66
2022-10-03T12:59:42.224Z,100230.44
2022-10-03T13:04:59.508Z,100253.25
2022-10-03T13:10:04.133Z,100247.97
2022-10-03T13:15:43.121Z,100253.78
2022-10-03T13:20:59.869Z,100240.88
2022-10-03T13:26:31.595Z,100250.28
2022-10-03T13:31:35.324Z,100260.31
2022-10-03T13:36:50.165Z,100264.75
2022-10-03T13:42:32.143Z,100263.06
2022-10-03T13:48:13.708Z,100263.69
2022-10-03T13:53:40.255Z,100263.63
2022-10-03T13:59:17.685Z,100244.22
2022-10-03T14:04:35.321Z,100253.44
2022-10-03T14:09:39.369Z,100261.22
2022-10-03T14:14:53.497Z,100270.91
2022-10-03T14:20:27.183Z,100275.47
2022-10-03T14:25:39.056Z,100268.97
2022-10-03T14:31:05.603Z,100268.97
2022-10-03T14:36:19.942Z,100277.41
2022-10-03T14:41:30.613Z,100273.22
2022-10-03T14:46:39.917Z,100274.75
2022-10-03T14:51:55.016Z,100254.50
2022-10-03T14:56:58.839Z,100268.88
2022-10-03T15:02:20.364Z,100270.66
2022-10-03T15:07:36.530Z,100269.00
2022-10-03T15:12:41.371Z,100257.31
2022-10-03T15:17:52.746Z,100271.75
2022-10-03T15:22:58.421Z,100257.44
2022-10-03T15:28:06.336Z,100270.16
2022-10-03T15:33:34.648Z,100298.16
2022-10-03T15:38:41.886Z,100279.63
2022-10-03T15:43:44.124Z,100277.97
2022-10-03T15:48:51.154Z,100273.00
2022-10-03T15:53:58.412Z,100272.22
2022-10-03T15:59:06.544Z,100270.53
2022-10-03T16:04:19.764Z,100276.50
2022-10-03T16:09:39.258Z,100290.06
2022-10-03T16:14:53.351Z,100288.41
2022-10-03T16:19:58.804Z,100305.31
2022-10-03T16:25:16.217Z,100312.94
2022-10-03T16:30:22.346Z,100312.97
2022-10-03T16:35:31.298Z,100322.25
2022-10-03T16:40:37.873Z,100330.72
2022-10-03T16:45:47.292Z,100339.16
2022-10-03T16:50:53.476Z,100344.25
2022-10-03T16:56:03.585Z,100348.47
2022-10-03T17:01:50.022Z,100361.97
2022-10-03T17:06:57.134Z,100369.56
2022-10-03T17:12:00.904Z,100375.50
2022-10-03T17:17:25.645Z,100375.50
2022-10-03T17:22:37.893Z,100377.19
2022-10-03T17:27:41.817Z,100383.06
2022-10-03T17:32:45.479Z,100386.47
2022-10-03T17:37:53.916Z,100389.81
2022-10-03T17:43:05.863Z,100403.31
2022-10-03T17:48:23.087Z,100403.28
2022-10-03T17:53:29.372Z,100403.28
2022-10-03T17:58:33.016Z,100410.91
2022-10-03T18:03:44.781Z,100403.28
2022-10-03T18:08:50.424Z,100395.66
2022-10-03T18:14:35.710Z,100391.47
2022-10-03T18:19:40.346Z,100404.09
2022-10-03T18:25:32.589Z,100396.47
2022-10-03T18:30:45.577Z,100394.75
2022-10-03T18:35:49.694Z,100386.25
2022-10-03T18:40:58.147Z,100392.16
2022-10-03T18:46:15.417Z,100382.88
2022-10-03T18:51:31.388Z,100401.44
2022-10-03T18:56:34.233Z,100403.97
2022-10-03T19:01:45.324Z,100409.00
2022-10-03T19:06:51.888Z,100404.78
2022-10-03T19:12:12.186Z,100417.47
2022-10-03T19:17:36.089Z,100418.28
2022-10-03T19:22:40.835Z,100426.72
2022-10-03T19:27:52.306Z,100438.56
2022-10-03T19:32:59.134Z,100441.16
2022-10-03T19:38:06.250Z,100434.34
2022-10-03T19:43:49.494Z,100443.63
2022-10-03T19:49:00.233Z,100440.22
2022-10-03T19:54:27.737Z,100428.38
2022-10-03T20:00:00.637Z,100432.63
2022-10-03T20:05:02.630Z,100427.59
2022-10-03T20:10:32.661Z,100426.72
2022-10-03T20:15:38.637Z,100432.66
2022-10-03T20:20:41.100Z,100446.97
2022-10-03T20:26:00.276Z,100445.25
2022-10-03T20:31:02.105Z,100448.63
2022-10-03T20:36:13.786Z,100455.38
2022-10-03T20:41:52.456Z,100443.53
2022-10-03T20:47:15.833Z,100446.91
2022-10-03T20:52:21.328Z,100443.56
2022-10-03T20:57:44.240Z,100440.19
2022-10-03T21:02:59.370Z,100427.53
2022-10-03T21:08:14.704Z,100416.53
2022-10-03T21:13:36.146Z,100415.69
2022-10-03T21:18:41.101Z,100414.00
2022-10-03T21:23:57.509Z,100418.22
2022-10-03T21:29:24.512Z,100418.22
2022-10-03T21:34:46.508Z,100421.59
2022-10-03T21:39:54.602Z,100409.84
2022-10-03T21:45:11.485Z,100406.44
2022-10-03T21:50:37.416Z,100404.72
2022-10-03T21:56:12.766Z,100412.34
2022-10-03T22:01:17.101Z,100408.16
2022-10-03T22:06:22.298Z,100411.56
2022-10-03T22:11:30.672Z,100397.22
2022-10-03T22:16:39.865Z,100396.38
2022-10-03T22:21:49.889Z,100388.78
2022-10-03T22:27:20.936Z,100381.25
2022-10-03T22:32:34.838Z,100373.66
2022-10-03T22:37:37.611Z,100372.00
2022-10-03T22:42:44.514Z,100361.84
2022-10-03T22:47:51.969Z,100351.75
2022-10-03T22:52:54.251Z,100345.81
2022-10-03T22:57:57.283Z,100356.78
2022-10-03T23:03:07.314Z,100359.31
2022-10-03T23:08:46.753Z,100355.88
2022-10-03T23:13:49.733Z,100356.72
2022-10-03T23:19:22.765Z,100354.19
2022-10-03T23:24:46.630Z,100353.34
2022-10-03T23:30:11.461Z,100359.25
2022-10-03T23:35:20.433Z,100358.41
2022-10-03T23:40:45.387Z,100364.28
2022-10-03T23:45:50.598Z,100365.94
2022-10-03T23:51:06.058Z,100371.00
2022-10-03T23:56:26.662Z,100369.31
